sensor_id;sensor_type;location;lat;lon;timestamp;P1;durP1;ratioP1;P2;durP2;ratioP2
65535;SDS011;52145;49.342;9.116;2022-09-01T00:01:41;6.65;;;3.10;;
65535;SDS011;52145;49.342;9.116;2022-09-01T00:04:10;5.93;;;2.58;;
65535;SDS011;52145;49.342;9.116;2022-09-01T00:06:37;4.55;;;2.53;;
65535;SDS011;52145;49.342;9.116;2022-09-01T00:09:07;2.83;;;2.38;;
65535;SDS011;52145;49.342;9.116;2022-09-01T00:11:37;5.18;;;2.40;;
65535;SDS011;52145;49.342;9.116;2022-09-01T00:14:04;4.10;;;2.65;;
65535;SDS011;52145;49.342;9.116;2022-09-01T00:16:31;3.75;;;2.58;;
65535;SDS011;52145;49.342;9.116;2022-09-01T00:18:57;3.65;;;2.67;;
65535;SDS011;52145;49.342;9.116;2022-09-01T00:21:25;5.63;;;2.40;;
65535;SDS011;52145;49.342;9.116;2022-09-01T00:23:53;4.10;;;2.53;;
65535;SDS011;52145;49.342;9.116;2022-09-01T00:26:19;5.32;;;2.95;;
65535;SDS011;52145;49.342;9.116;2022-09-01T00:28:44;7.43;;;2.90;;
65535;SDS011;52145;49.342;9.116;2022-09-01T00:31:10;6.28;;;2.60;;
65535;SDS011;52145;49.342;9.116;2022-09-01T00:33:38;3.92;;;2.70;;
65535;SDS011;52145;49.342;9.116;2022-09-01T00:36:04;4.25;;;2.95;;
65535;SDS011;52145;49.342;9.116;2022-09-01T00:38:30;5.18;;;2.80;;
65535;SDS011;52145;49.342;9.116;2022-09-01T00:40:57;3.75;;;2.65;;
65535;SDS011;52145;49.342;9.116;2022-09-01T00:43:34;7.82;;;2.85;;
65535;SDS011;52145;49.342;9.116;2022-09-01T00:46:01;7.22;;;2.78;;
65535;SDS011;52145;49.342;9.116;2022-09-01T00:48:28;5.60;;;2.80;;
65535;SDS011;52145;49.342;9.116;2022-09-01T00:50:54;5.80;;;2.80;;
65535;SDS011;52145;49.342;9.116;2022-09-01T00:53:20;4.88;;;2.80;;
65535;SDS011;52145;49.342;9.116;2022-09-01T00:55:45;4.57;;;2.83;;
65535;SDS011;52145;49.342;9.116;2022-09-01T00:58:11;5.60;;;3.03;;
65535;SDS011;52145;49.342;9.116;2022-09-01T01:00:37;4.22;;;2.78;;
65535;SDS011;52145;49.342;9.116;2022-09-01T01:03:05;4.72;;;2.78;;
65535;SDS011;52145;49.342;9.116;2022-09-01T01:05:33;4.38;;;3.08;;
65535;SDS011;52145;49.342;9.116;2022-09-01T01:08:03;6.22;;;2.92;;
65535;SDS011;52145;49.342;9.116;2022-09-01T01:10:32;6.80;;;3.30;;
65535;SDS011;52145;49.342;9.116;2022-09-01T01:13:01;5.13;;;2.72;;
65535;SDS011;52145;49.342;9.116;2022-09-01T01:15:30;3.75;;;2.67;;
65535;SDS011;52145;49.342;9.116;2022-09-01T01:17:56;4.57;;;2.97;;
65535;SDS011;52145;49.342;9.116;2022-09-01T01:20:25;5.40;;;2.95;;
65535;SDS011;52145;49.342;9.116;2022-09-01T01:26:05;5.78;;;2.80;;
65535;SDS011;52145;49.342;9.116;2022-09-01T01:28:34;4.72;;;2.95;;
65535;SDS011;52145;49.342;9.116;2022-09-01T01:31:10;4.15;;;3.03;;
65535;SDS011;52145;49.342;9.116;2022-09-01T01:36:06;4.82;;;2.80;;
65535;SDS011;52145;49.342;9.116;2022-09-01T01:38:36;5.05;;;3.00;;
65535;SDS011;52145;49.342;9.116;2022-09-01T01:41:07;5.82;;;3.22;;
65535;SDS011;52145;49.342;9.116;2022-09-01T01:43:34;5.93;;;3.35;;
65535;SDS011;52145;49.342;9.116;2022-09-01T01:45:59;4.72;;;3.10;;
65535;SDS011;52145;49.342;9.116;2022-09-01T01:48:27;5.93;;;3.28;;
65535;SDS011;52145;49.342;9.116;2022-09-01T01:50:54;5.35;;;3.55;;
65535;SDS011;52145;49.342;9.116;2022-09-01T01:53:24;6.80;;;3.70;;
65535;SDS011;52145;49.342;9.116;2022-09-01T01:55:51;7.85;;;3.53;;
65535;SDS011;52145;49.342;9.116;2022-09-01T01:58:16;5.15;;;3.70;;
65535;SDS011;52145;49.342;9.116;2022-09-01T02:00:44;7.60;;;3.75;;
65535;SDS011;52145;49.342;9.116;2022-09-01T02:03:11;4.97;;;3.42;;
65535;SDS011;52145;49.342;9.116;2022-09-01T02:05:43;4.75;;;3.08;;
65535;SDS011;52145;49.342;9.116;2022-09-01T02:08:10;6.10;;;3.58;;
65535;SDS011;52145;49.342;9.116;2022-09-01T02:10:39;5.40;;;3.65;;
65535;SDS011;52145;49.342;9.116;2022-09-01T02:13:08;5.38;;;2.83;;
65535;SDS011;52145;49.342;9.116;2022-09-01T02:15:40;5.55;;;3.22;;
65535;SDS011;52145;49.342;9.116;2022-09-01T02:18:12;8.85;;;3.60;;
65535;SDS011;52145;49.342;9.116;2022-09-01T02:20:42;6.85;;;3.47;;
65535;SDS011;52145;49.342;9.116;2022-09-01T02:23:08;4.78;;;3.40;;
65535;SDS011;52145;49.342;9.116;2022-09-01T02:25:42;6.97;;;3.92;;
65535;SDS011;52145;49.342;9.116;2022-09-01T02:28:13;6.38;;;3.63;;
65535;SDS011;52145;49.342;9.116;2022-09-01T02:30:43;5.00;;;3.42;;
65535;SDS011;52145;49.342;9.116;2022-09-01T02:33:11;5.57;;;3.28;;
65535;SDS011;52145;49.342;9.116;2022-09-01T02:35:42;6.30;;;3.17;;
65535;SDS011;52145;49.342;9.116;2022-09-01T02:38:09;7.97;;;3.88;;
65535;SDS011;52145;49.342;9.116;2022-09-01T02:40:37;6.45;;;3.63;;
65535;SDS011;52145;49.342;9.116;2022-09-01T02:43:04;4.82;;;2.95;;
65535;SDS011;52145;49.342;9.116;2022-09-01T02:45:30;6.10;;;3.60;;
65535;SDS011;52145;49.342;9.116;2022-09-01T02:47:56;6.85;;;3.47;;
65535;SDS011;52145;49.342;9.116;2022-09-01T02:50:22;6.05;;;3.80;;
65535;SDS011;52145;49.342;9.116;2022-09-01T02:52:49;4.93;;;3.25;;
65535;SDS011;52145;49.342;9.116;2022-09-01T02:55:16;6.18;;;3.45;;
65535;SDS011;52145;49.342;9.116;2022-09-01T02:57:46;8.43;;;4.00;;
65535;SDS011;52145;49.342;9.116;2022-09-01T03:00:13;6.00;;;3.70;;
65535;SDS011;52145;49.342;9.116;2022-09-01T03:02:53;4.82;;;3.28;;
65535;SDS011;52145;49.342;9.116;2022-09-01T03:05:21;5.03;;;3.78;;
65535;SDS011;52145;49.342;9.116;2022-09-01T03:07:55;6.10;;;3.40;;
65535;SDS011;52145;49.342;9.116;2022-09-01T03:10:27;6.10;;;3.58;;
65535;SDS011;52145;49.342;9.116;2022-09-01T03:12:57;7.78;;;4.10;;
65535;SDS011;52145;49.342;9.116;2022-09-01T03:15:24;7.47;;;3.75;;
65535;SDS011;52145;49.342;9.116;2022-09-01T03:17:51;5.43;;;3.30;;
65535;SDS011;52145;49.342;9.116;2022-09-01T03:20:17;5.63;;;3.63;;
65535;SDS011;52145;49.342;9.116;2022-09-01T03:22:44;4.35;;;3.20;;
65535;SDS011;52145;49.342;9.116;2022-09-01T03:25:11;6.25;;;3.38;;
65535;SDS011;52145;49.342;9.116;2022-09-01T03:27:37;8.60;;;3.88;;
65535;SDS011;52145;49.342;9.116;2022-09-01T03:30:03;9.68;;;3.50;;
65535;SDS011;52145;49.342;9.116;2022-09-01T03:32:29;7.35;;;3.90;;
65535;SDS011;52145;49.342;9.116;2022-09-01T03:34:55;6.18;;;3.63;;
65535;SDS011;52145;49.342;9.116;2022-09-01T03:37:21;8.00;;;3.40;;
65535;SDS011;52145;49.342;9.116;2022-09-01T03:39:47;6.38;;;3.67;;
65535;SDS011;52145;49.342;9.116;2022-09-01T03:42:13;7.57;;;3.47;;
65535;SDS011;52145;49.342;9.116;2022-09-01T03:44:49;4.88;;;3.33;;
65535;SDS011;52145;49.342;9.116;2022-09-01T03:47:17;6.15;;;4.00;;
65535;SDS011;52145;49.342;9.116;2022-09-01T03:49:45;8.82;;;3.90;;
65535;SDS011;52145;49.342;9.116;2022-09-01T03:52:13;6.28;;;3.60;;
65535;SDS011;52145;49.342;9.116;2022-09-01T03:54:41;11.13;;;3.70;;
65535;SDS011;52145;49.342;9.116;2022-09-01T03:57:09;6.30;;;3.53;;
65535;SDS011;52145;49.342;9.116;2022-09-01T03:59:36;4.85;;;3.20;;
65535;SDS011;52145;49.342;9.116;2022-09-01T04:02:07;6.05;;;3.42;;
65535;SDS011;52145;49.342;9.116;2022-09-01T04:04:32;6.93;;;3.50;;
65535;SDS011;52145;49.342;9.116;2022-09-01T04:06:58;5.25;;;3.38;;
65535;SDS011;52145;49.342;9.116;2022-09-01T04:09:24;4.70;;;3.58;;
65535;SDS011;52145;49.342;9.116;2022-09-01T04:11:50;7.38;;;4.03;;
65535;SDS011;52145;49.342;9.116;2022-09-01T04:14:17;6.20;;;3.90;;
65535;SDS011;52145;49.342;9.116;2022-09-01T04:16:43;4.85;;;3.75;;
65535;SDS011;52145;49.342;9.116;2022-09-01T04:19:28;5.00;;;3.60;;
65535;SDS011;52145;49.342;9.116;2022-09-01T04:21:59;7.03;;;3.90;;
65535;SDS011;52145;49.342;9.116;2022-09-01T04:24:25;6.72;;;3.30;;
65535;SDS011;52145;49.342;9.116;2022-09-01T04:26:52;8.13;;;4.22;;
65535;SDS011;52145;49.342;9.116;2022-09-01T04:29:20;8.75;;;3.67;;
65535;SDS011;52145;49.342;9.116;2022-09-01T04:31:53;8.80;;;3.60;;
65535;SDS011;52145;49.342;9.116;2022-09-01T04:34:30;6.10;;;3.83;;
65535;SDS011;52145;49.342;9.116;2022-09-01T04:37:01;6.80;;;3.75;;
65535;SDS011;52145;49.342;9.116;2022-09-01T04:39:37;7.65;;;4.28;;
65535;SDS011;52145;49.342;9.116;2022-09-01T04:42:03;6.30;;;4.07;;
65535;SDS011;52145;49.342;9.116;2022-09-01T04:44:30;5.40;;;4.00;;
65535;SDS011;52145;49.342;9.116;2022-09-01T04:46:55;8.07;;;4.15;;
65535;SDS011;52145;49.342;9.116;2022-09-01T04:49:21;6.05;;;4.32;;
65535;SDS011;52145;49.342;9.116;2022-09-01T04:51:48;7.95;;;3.83;;
65535;SDS011;52145;49.342;9.116;2022-09-01T04:54:16;6.30;;;4.22;;
65535;SDS011;52145;49.342;9.116;2022-09-01T04:56:43;6.45;;;4.43;;
65535;SDS011;52145;49.342;9.116;2022-09-01T04:59:11;7.57;;;4.28;;
65535;SDS011;52145;49.342;9.116;2022-09-01T05:01:38;7.05;;;4.20;;
65535;SDS011;52145;49.342;9.116;2022-09-01T05:04:11;6.20;;;4.20;;
65535;SDS011;52145;49.342;9.116;2022-09-01T05:06:42;8.52;;;5.22;;
65535;SDS011;52145;49.342;9.116;2022-09-01T05:09:09;6.10;;;4.20;;
65535;SDS011;52145;49.342;9.116;2022-09-01T05:11:37;7.05;;;4.25;;
65535;SDS011;52145;49.342;9.116;2022-09-01T05:14:04;7.10;;;3.88;;
65535;SDS011;52145;49.342;9.116;2022-09-01T05:16:31;6.53;;;4.82;;
65535;SDS011;52145;49.342;9.116;2022-09-01T05:18:58;5.75;;;3.88;;
65535;SDS011;52145;49.342;9.116;2022-09-01T05:21:25;5.00;;;3.75;;
65535;SDS011;52145;49.342;9.116;2022-09-01T05:23:53;5.45;;;4.05;;
65535;SDS011;52145;49.342;9.116;2022-09-01T05:26:23;6.22;;;4.28;;
65535;SDS011;52145;49.342;9.116;2022-09-01T05:28:52;7.53;;;4.70;;
65535;SDS011;52145;49.342;9.116;2022-09-01T05:31:22;6.28;;;3.97;;
65535;SDS011;52145;49.342;9.116;2022-09-01T05:33:49;9.73;;;4.70;;
65535;SDS011;52145;49.342;9.116;2022-09-01T05:36:16;9.15;;;5.10;;
65535;SDS011;52145;49.342;9.116;2022-09-01T05:38:43;8.35;;;5.25;;
65535;SDS011;52145;49.342;9.116;2022-09-01T05:41:10;8.07;;;5.28;;
65535;SDS011;52145;49.342;9.116;2022-09-01T05:43:39;9.90;;;5.47;;
65535;SDS011;52145;49.342;9.116;2022-09-01T05:46:11;9.38;;;4.70;;
65535;SDS011;52145;49.342;9.116;2022-09-01T05:48:39;9.60;;;5.43;;
65535;SDS011;52145;49.342;9.116;2022-09-01T05:51:06;8.07;;;4.95;;
65535;SDS011;52145;49.342;9.116;2022-09-01T05:53:33;6.95;;;4.70;;
65535;SDS011;52145;49.342;9.116;2022-09-01T05:55:59;8.25;;;5.20;;
65535;SDS011;52145;49.342;9.116;2022-09-01T05:58:31;6.18;;;4.63;;
65535;SDS011;52145;49.342;9.116;2022-09-01T06:00:58;7.15;;;4.00;;
65535;SDS011;52145;49.342;9.116;2022-09-01T06:03:24;10.18;;;4.70;;
65535;SDS011;52145;49.342;9.116;2022-09-01T06:05:52;7.60;;;4.97;;
65535;SDS011;52145;49.342;9.116;2022-09-01T06:08:25;9.85;;;4.80;;
65535;SDS011;52145;49.342;9.116;2022-09-01T06:10:53;10.95;;;4.78;;
65535;SDS011;52145;49.342;9.116;2022-09-01T06:13:19;8.98;;;4.30;;
65535;SDS011;52145;49.342;9.116;2022-09-01T06:15:46;9.02;;;4.78;;
65535;SDS011;52145;49.342;9.116;2022-09-01T06:18:13;7.10;;;4.15;;
65535;SDS011;52145;49.342;9.116;2022-09-01T06:20:42;7.60;;;4.82;;
65535;SDS011;52145;49.342;9.116;2022-09-01T06:23:10;7.05;;;4.18;;
65535;SDS011;52145;49.342;9.116;2022-09-01T06:25:38;6.95;;;4.50;;
65535;SDS011;52145;49.342;9.116;2022-09-01T06:28:10;9.23;;;4.63;;
65535;SDS011;52145;49.342;9.116;2022-09-01T06:30:37;7.20;;;4.50;;
65535;SDS011;52145;49.342;9.116;2022-09-01T06:33:03;6.93;;;4.57;;
65535;SDS011;52145;49.342;9.116;2022-09-01T06:35:33;8.32;;;4.45;;
65535;SDS011;52145;49.342;9.116;2022-09-01T06:37:59;8.57;;;4.65;;
65535;SDS011;52145;49.342;9.116;2022-09-01T06:40:26;11.95;;;4.18;;
65535;SDS011;52145;49.342;9.116;2022-09-01T06:42:52;8.82;;;4.32;;
65535;SDS011;52145;49.342;9.116;2022-09-01T06:45:19;7.45;;;4.68;;
65535;SDS011;52145;49.342;9.116;2022-09-01T06:47:47;7.45;;;3.92;;
65535;SDS011;52145;49.342;9.116;2022-09-01T06:50:15;5.18;;;3.80;;
65535;SDS011;52145;49.342;9.116;2022-09-01T06:52:43;7.80;;;3.97;;
65535;SDS011;52145;49.342;9.116;2022-09-01T06:55:10;5.32;;;3.50;;
65535;SDS011;52145;49.342;9.116;2022-09-01T06:57:40;6.80;;;4.38;;
65535;SDS011;52145;49.342;9.116;2022-09-01T07:02:45;6.72;;;4.38;;
65535;SDS011;52145;49.342;9.116;2022-09-01T07:05:12;8.10;;;4.40;;
65535;SDS011;52145;49.342;9.116;2022-09-01T07:07:45;5.55;;;4.10;;
65535;SDS011;52145;49.342;9.116;2022-09-01T07:10:16;6.30;;;4.50;;
65535;SDS011;52145;49.342;9.116;2022-09-01T07:12:49;6.43;;;4.22;;
65535;SDS011;52145;49.342;9.116;2022-09-01T07:15:16;9.48;;;4.18;;
65535;SDS011;52145;49.342;9.116;2022-09-01T07:17:47;8.70;;;4.57;;
65535;SDS011;52145;49.342;9.116;2022-09-01T07:20:15;7.05;;;4.60;;
65535;SDS011;52145;49.342;9.116;2022-09-01T07:22:41;7.30;;;4.30;;
65535;SDS011;52145;49.342;9.116;2022-09-01T07:25:07;7.20;;;4.75;;
65535;SDS011;52145;49.342;9.116;2022-09-01T07:27:36;7.25;;;4.88;;
65535;SDS011;52145;49.342;9.116;2022-09-01T07:30:03;7.82;;;4.57;;
65535;SDS011;52145;49.342;9.116;2022-09-01T07:32:31;8.63;;;4.18;;
65535;SDS011;52145;49.342;9.116;2022-09-01T07:34:57;4.88;;;3.65;;
65535;SDS011;52145;49.342;9.116;2022-09-01T07:37:23;4.78;;;3.58;;
65535;SDS011;52145;49.342;9.116;2022-09-01T07:39:51;5.70;;;3.55;;
65535;SDS011;52145;49.342;9.116;2022-09-01T07:42:18;5.90;;;3.95;;
65535;SDS011;52145;49.342;9.116;2022-09-01T07:44:44;9.93;;;4.20;;
65535;SDS011;52145;49.342;9.116;2022-09-01T07:47:11;5.40;;;3.88;;
65535;SDS011;52145;49.342;9.116;2022-09-01T07:49:39;6.68;;;4.05;;
65535;SDS011;52145;49.342;9.116;2022-09-01T07:52:05;6.25;;;3.90;;
65535;SDS011;52145;49.342;9.116;2022-09-01T07:54:31;6.60;;;3.72;;
65535;SDS011;52145;49.342;9.116;2022-09-01T07:57:01;5.97;;;4.32;;
65535;SDS011;52145;49.342;9.116;2022-09-01T07:59:27;7.43;;;4.25;;
65535;SDS011;52145;49.342;9.116;2022-09-01T08:01:53;6.20;;;4.10;;
65535;SDS011;52145;49.342;9.116;2022-09-01T08:04:21;7.70;;;4.10;;
65535;SDS011;52145;49.342;9.116;2022-09-01T08:06:47;8.40;;;4.20;;
65535;SDS011;52145;49.342;9.116;2022-09-01T08:09:13;5.35;;;3.58;;
65535;SDS011;52145;49.342;9.116;2022-09-01T08:11:39;6.28;;;3.80;;
65535;SDS011;52145;49.342;9.116;2022-09-01T08:14:04;5.57;;;3.83;;
65535;SDS011;52145;49.342;9.116;2022-09-01T08:16:30;6.82;;;4.30;;
65535;SDS011;52145;49.342;9.116;2022-09-01T08:18:56;6.53;;;4.35;;
65535;SDS011;52145;49.342;9.116;2022-09-01T08:21:23;7.63;;;4.50;;
65535;SDS011;52145;49.342;9.116;2022-09-01T08:23:51;7.25;;;3.88;;
65535;SDS011;52145;49.342;9.116;2022-09-01T08:26:18;8.60;;;4.38;;
65535;SDS011;52145;49.342;9.116;2022-09-01T08:28:45;7.10;;;3.60;;
65535;SDS011;52145;49.342;9.116;2022-09-01T08:31:12;6.15;;;4.10;;
65535;SDS011;52145;49.342;9.116;2022-09-01T08:33:41;7.00;;;4.30;;
65535;SDS011;52145;49.342;9.116;2022-09-01T08:36:08;5.90;;;4.03;;
65535;SDS011;52145;49.342;9.116;2022-09-01T08:38:35;7.28;;;3.05;;
65535;SDS011;52145;49.342;9.116;2022-09-01T08:41:02;4.90;;;3.60;;
65535;SDS011;52145;49.342;9.116;2022-09-01T08:46:18;4.80;;;2.88;;
65535;SDS011;52145;49.342;9.116;2022-09-01T08:49:00;5.15;;;2.90;;
65535;SDS011;52145;49.342;9.116;2022-09-01T08:51:34;5.95;;;3.42;;
65535;SDS011;52145;49.342;9.116;2022-09-01T08:56:46;4.03;;;2.75;;
65535;SDS011;52145;49.342;9.116;2022-09-01T08:59:15;3.88;;;2.95;;
65535;SDS011;52145;49.342;9.116;2022-09-01T09:01:48;4.18;;;2.58;;
65535;SDS011;52145;49.342;9.116;2022-09-01T09:06:55;5.20;;;3.00;;
65535;SDS011;52145;49.342;9.116;2022-09-01T09:09:28;4.72;;;3.22;;
65535;SDS011;52145;49.342;9.116;2022-09-01T09:12:05;4.93;;;3.10;;
65535;SDS011;52145;49.342;9.116;2022-09-01T09:17:34;4.65;;;3.17;;
65535;SDS011;52145;49.342;9.116;2022-09-01T09:20:23;4.13;;;2.97;;
65535;SDS011;52145;49.342;9.116;2022-09-01T09:22:50;5.95;;;3.28;;
65535;SDS011;52145;49.342;9.116;2022-09-01T09:25:17;4.65;;;3.08;;
65535;SDS011;52145;49.342;9.116;2022-09-01T09:27:44;5.88;;;3.20;;
65535;SDS011;52145;49.342;9.116;2022-09-01T09:30:21;5.72;;;2.92;;
65535;SDS011;52145;49.342;9.116;2022-09-01T09:33:00;3.67;;;2.75;;
65535;SDS011;52145;49.342;9.116;2022-09-01T09:40:55;4.30;;;2.72;;
65535;SDS011;52145;49.342;9.116;2022-09-01T09:43:29;5.22;;;2.95;;
65535;SDS011;52145;49.342;9.116;2022-09-01T09:46:19;3.40;;;2.30;;
65535;SDS011;52145;49.342;9.116;2022-09-01T09:49:09;3.97;;;2.72;;
65535;SDS011;52145;49.342;9.116;2022-09-01T09:52:35;5.25;;;2.58;;
65535;SDS011;52145;49.342;9.116;2022-09-01T09:57:29;4.45;;;2.80;;
65535;SDS011;52145;49.342;9.116;2022-09-01T10:00:05;4.97;;;3.03;;
65535;SDS011;52145;49.342;9.116;2022-09-01T10:02:40;6.95;;;2.72;;
65535;SDS011;52145;49.342;9.116;2022-09-01T10:08:13;5.47;;;2.90;;
65535;SDS011;52145;49.342;9.116;2022-09-01T10:11:01;7.38;;;3.72;;
65535;SDS011;52145;49.342;9.116;2022-09-01T10:13:28;5.00;;;3.42;;
65535;SDS011;52145;49.342;9.116;2022-09-01T10:15:56;4.13;;;2.88;;
65535;SDS011;52145;49.342;9.116;2022-09-01T10:18:26;5.15;;;3.05;;
65535;SDS011;52145;49.342;9.116;2022-09-01T10:23:28;4.50;;;3.45;;
65535;SDS011;52145;49.342;9.116;2022-09-01T10:25:57;4.82;;;3.33;;
65535;SDS011;52145;49.342;9.116;2022-09-01T10:28:33;4.97;;;3.20;;
65535;SDS011;52145;49.342;9.116;2022-09-01T10:31:05;4.45;;;3.20;;
65535;SDS011;52145;49.342;9.116;2022-09-01T10:33:32;5.10;;;3.78;;
65535;SDS011;52145;49.342;9.116;2022-09-01T10:35:58;4.78;;;3.40;;
65535;SDS011;52145;49.342;9.116;2022-09-01T10:38:25;6.28;;;3.38;;
65535;SDS011;52145;49.342;9.116;2022-09-01T10:40:53;5.03;;;3.65;;
65535;SDS011;52145;49.342;9.116;2022-09-01T10:43:40;5.15;;;3.22;;
65535;SDS011;52145;49.342;9.116;2022-09-01T10:49:01;4.95;;;3.42;;
65535;SDS011;52145;49.342;9.116;2022-09-01T10:52:05;4.40;;;3.10;;
65535;SDS011;52145;49.342;9.116;2022-09-01T10:57:03;4.63;;;2.80;;
65535;SDS011;52145;49.342;9.116;2022-09-01T10:59:45;3.65;;;2.70;;
65535;SDS011;52145;49.342;9.116;2022-09-01T11:02:13;4.95;;;3.42;;
65535;SDS011;52145;49.342;9.116;2022-09-01T11:10:12;3.97;;;3.03;;
65535;SDS011;52145;49.342;9.116;2022-09-01T11:12:46;4.68;;;3.08;;
65535;SDS011;52145;49.342;9.116;2022-09-01T11:15:32;4.38;;;2.63;;
65535;SDS011;52145;49.342;9.116;2022-09-01T11:18:06;4.90;;;2.85;;
65535;SDS011;52145;49.342;9.116;2022-09-01T11:20:47;4.57;;;3.23;;
65535;SDS011;52145;49.342;9.116;2022-09-01T11:23:27;4.85;;;3.08;;
65535;SDS011;52145;49.342;9.116;2022-09-01T11:25:59;4.38;;;2.88;;
65535;SDS011;52145;49.342;9.116;2022-09-01T11:28:44;5.82;;;3.03;;
65535;SDS011;52145;49.342;9.116;2022-09-01T11:31:15;3.40;;;2.65;;
65535;SDS011;52145;49.342;9.116;2022-09-01T11:44:10;3.03;;;2.50;;
65535;SDS011;52145;49.342;9.116;2022-09-01T11:46:41;4.07;;;2.95;;
65535;SDS011;52145;49.342;9.116;2022-09-01T11:49:46;5.40;;;3.05;;
65535;SDS011;52145;49.342;9.116;2022-09-01T11:52:03;5.68;;;2.90;;
65535;SDS011;52145;49.342;9.116;2022-09-01T11:54:35;3.55;;;2.55;;
65535;SDS011;52145;49.342;9.116;2022-09-01T11:59:50;4.57;;;3.00;;
65535;SDS011;52145;49.342;9.116;2022-09-01T12:02:26;6.43;;;3.22;;
65535;SDS011;52145;49.342;9.116;2022-09-01T12:04:55;4.15;;;3.08;;
65535;SDS011;52145;49.342;9.116;2022-09-01T12:11:53;4.05;;;3.10;;
65535;SDS011;52145;49.342;9.116;2022-09-01T12:14:19;4.15;;;2.80;;
65535;SDS011;52145;49.342;9.116;2022-09-01T12:17:18;3.75;;;3.03;;
65535;SDS011;52145;49.342;9.116;2022-09-01T12:19:44;3.88;;;2.72;;
65535;SDS011;52145;49.342;9.116;2022-09-01T12:22:13;3.25;;;2.45;;
65535;SDS011;52145;49.342;9.116;2022-09-01T12:26:48;3.72;;;2.55;;
65535;SDS011;52145;49.342;9.116;2022-09-01T12:29:15;3.35;;;2.30;;
65535;SDS011;52145;49.342;9.116;2022-09-01T12:31:43;4.30;;;2.92;;
65535;SDS011;52145;49.342;9.116;2022-09-01T12:34:23;4.13;;;2.80;;
65535;SDS011;52145;49.342;9.116;2022-09-01T12:37:43;4.30;;;2.50;;
65535;SDS011;52145;49.342;9.116;2022-09-01T12:40:23;4.30;;;2.70;;
65535;SDS011;52145;49.342;9.116;2022-09-01T12:42:54;3.75;;;2.00;;
65535;SDS011;52145;49.342;9.116;2022-09-01T12:48:01;3.58;;;2.42;;
65535;SDS011;52145;49.342;9.116;2022-09-01T12:55:24;4.35;;;2.50;;
65535;SDS011;52145;49.342;9.116;2022-09-01T12:57:52;3.05;;;2.20;;
65535;SDS011;52145;49.342;9.116;2022-09-01T13:00:20;2.42;;;2.22;;
65535;SDS011;52145;49.342;9.116;2022-09-01T13:03:13;3.35;;;2.38;;
65535;SDS011;52145;49.342;9.116;2022-09-01T13:05:43;2.88;;;2.15;;
65535;SDS011;52145;49.342;9.116;2022-09-01T13:08:24;2.95;;;2.40;;
65535;SDS011;52145;49.342;9.116;2022-09-01T13:11:03;3.63;;;2.20;;
65535;SDS011;52145;49.342;9.116;2022-09-01T13:13:31;3.42;;;2.13;;
65535;SDS011;52145;49.342;9.116;2022-09-01T13:15:59;3.22;;;2.00;;
65535;SDS011;52145;49.342;9.116;2022-09-01T13:18:28;4.88;;;1.90;;
65535;SDS011;52145;49.342;9.116;2022-09-01T13:20:55;3.95;;;2.30;;
65535;SDS011;52145;49.342;9.116;2022-09-01T13:23:22;3.78;;;2.17;;
65535;SDS011;52145;49.342;9.116;2022-09-01T13:25:48;3.20;;;2.35;;
65535;SDS011;52145;49.342;9.116;2022-09-01T13:28:14;4.22;;;2.28;;
65535;SDS011;52145;49.342;9.116;2022-09-01T13:30:42;4.45;;;2.40;;
65535;SDS011;52145;49.342;9.116;2022-09-01T13:33:09;3.00;;;2.30;;
65535;SDS011;52145;49.342;9.116;2022-09-01T13:35:36;2.65;;;2.05;;
65535;SDS011;52145;49.342;9.116;2022-09-01T13:38:02;3.05;;;2.10;;
65535;SDS011;52145;49.342;9.116;2022-09-01T13:40:28;7.68;;;2.22;;
65535;SDS011;52145;49.342;9.116;2022-09-01T13:42:53;4.95;;;2.03;;
65535;SDS011;52145;49.342;9.116;2022-09-01T13:45:20;3.80;;;2.40;;
65535;SDS011;52145;49.342;9.116;2022-09-01T13:47:49;4.03;;;2.38;;
65535;SDS011;52145;49.342;9.116;2022-09-01T13:50:16;3.28;;;2.25;;
65535;SDS011;52145;49.342;9.116;2022-09-01T13:52:47;2.60;;;2.40;;
65535;SDS011;52145;49.342;9.116;2022-09-01T13:55:15;4.90;;;2.22;;
65535;SDS011;52145;49.342;9.116;2022-09-01T13:57:43;2.83;;;2.20;;
65535;SDS011;52145;49.342;9.116;2022-09-01T14:00:10;3.13;;;2.13;;
65535;SDS011;52145;49.342;9.116;2022-09-01T14:02:38;4.85;;;2.60;;
65535;SDS011;52145;49.342;9.116;2022-09-01T14:05:04;7.30;;;2.35;;
65535;SDS011;52145;49.342;9.116;2022-09-01T14:07:30;4.50;;;2.15;;
65535;SDS011;52145;49.342;9.116;2022-09-01T14:09:56;6.95;;;4.93;;
65535;SDS011;52145;49.342;9.116;2022-09-01T14:12:22;2.20;;;1.98;;
65535;SDS011;52145;49.342;9.116;2022-09-01T14:14:48;10.52;;;7.93;;
65535;SDS011;52145;49.342;9.116;2022-09-01T14:17:14;4.18;;;2.65;;
65535;SDS011;52145;49.342;9.116;2022-09-01T14:19:40;4.90;;;2.50;;
65535;SDS011;52145;49.342;9.116;2022-09-01T14:22:06;2.60;;;2.22;;
65535;SDS011;52145;49.342;9.116;2022-09-01T14:24:35;3.50;;;2.30;;
65535;SDS011;52145;49.342;9.116;2022-09-01T14:27:01;3.63;;;2.70;;
65535;SDS011;52145;49.342;9.116;2022-09-01T14:29:27;4.57;;;2.30;;
65535;SDS011;52145;49.342;9.116;2022-09-01T14:31:53;4.03;;;2.45;;
65535;SDS011;52145;49.342;9.116;2022-09-01T14:34:21;5.78;;;2.33;;
65535;SDS011;52145;49.342;9.116;2022-09-01T14:36:48;11.02;;;3.25;;
65535;SDS011;52145;49.342;9.116;2022-09-01T14:39:16;6.97;;;2.60;;
65535;SDS011;52145;49.342;9.116;2022-09-01T14:41:42;4.68;;;2.72;;
65535;SDS011;52145;49.342;9.116;2022-09-01T14:44:07;3.67;;;2.42;;
65535;SDS011;52145;49.342;9.116;2022-09-01T14:46:33;6.07;;;2.25;;
65535;SDS011;52145;49.342;9.116;2022-09-01T14:49:00;5.30;;;2.50;;
65535;SDS011;52145;49.342;9.116;2022-09-01T14:51:28;7.63;;;2.50;;
65535;SDS011;52145;49.342;9.116;2022-09-01T14:53:54;3.60;;;2.53;;
65535;SDS011;52145;49.342;9.116;2022-09-01T14:56:21;2.50;;;2.20;;
65535;SDS011;52145;49.342;9.116;2022-09-01T14:58:47;2.95;;;2.10;;
65535;SDS011;52145;49.342;9.116;2022-09-01T15:01:14;5.07;;;2.25;;
65535;SDS011;52145;49.342;9.116;2022-09-01T15:03:42;2.83;;;2.10;;
65535;SDS011;52145;49.342;9.116;2022-09-01T15:06:10;4.95;;;2.60;;
65535;SDS011;52145;49.342;9.116;2022-09-01T15:08:37;4.68;;;2.00;;
65535;SDS011;52145;49.342;9.116;2022-09-01T15:11:06;3.08;;;2.17;;
65535;SDS011;52145;49.342;9.116;2022-09-01T15:13:33;3.47;;;2.08;;
65535;SDS011;52145;49.342;9.116;2022-09-01T15:15:58;3.42;;;2.20;;
65535;SDS011;52145;49.342;9.116;2022-09-01T15:18:25;4.32;;;2.13;;
65535;SDS011;52145;49.342;9.116;2022-09-01T15:20:50;4.47;;;2.10;;
65535;SDS011;52145;49.342;9.116;2022-09-01T15:23:19;2.42;;;1.73;;
65535;SDS011;52145;49.342;9.116;2022-09-01T15:25:47;4.20;;;1.90;;
65535;SDS011;52145;49.342;9.116;2022-09-01T15:28:14;3.67;;;2.08;;
65535;SDS011;52145;49.342;9.116;2022-09-01T15:30:40;2.33;;;1.95;;
65535;SDS011;52145;49.342;9.116;2022-09-01T15:33:09;3.97;;;1.88;;
65535;SDS011;52145;49.342;9.116;2022-09-01T15:35:36;4.38;;;1.88;;
65535;SDS011;52145;49.342;9.116;2022-09-01T15:38:01;3.67;;;2.00;;
65535;SDS011;52145;49.342;9.116;2022-09-01T15:40:28;3.58;;;1.92;;
65535;SDS011;52145;49.342;9.116;2022-09-01T15:42:53;5.18;;;2.15;;
65535;SDS011;52145;49.342;9.116;2022-09-01T15:45:21;5.15;;;2.47;;
65535;SDS011;52145;49.342;9.116;2022-09-01T15:47:47;3.38;;;2.22;;
65535;SDS011;52145;49.342;9.116;2022-09-01T15:50:14;4.45;;;2.25;;
65535;SDS011;52145;49.342;9.116;2022-09-01T15:52:45;3.00;;;2.03;;
65535;SDS011;52145;49.342;9.116;2022-09-01T15:55:13;4.00;;;2.00;;
65535;SDS011;52145;49.342;9.116;2022-09-01T15:57:40;5.95;;;2.33;;
65535;SDS011;52145;49.342;9.116;2022-09-01T16:00:06;3.10;;;2.20;;
65535;SDS011;52145;49.342;9.116;2022-09-01T16:02:32;3.47;;;2.30;;
65535;SDS011;52145;49.342;9.116;2022-09-01T16:04:57;5.53;;;2.50;;
65535;SDS011;52145;49.342;9.116;2022-09-01T16:07:23;4.68;;;2.00;;
65535;SDS011;52145;49.342;9.116;2022-09-01T16:09:48;4.13;;;2.22;;
65535;SDS011;52145;49.342;9.116;2022-09-01T16:12:16;5.47;;;3.00;;